sensor_id;sensor_type;location;lat;lon;timestamp;P1;durP1;ratioP1;P2;durP2;ratioP2
39020;SDS011;25188;51.958;5.842;2022-11-15T00:00:17;37.80;;;18.27;;
39020;SDS011;25188;51.958;5.842;2022-11-15T00:02:43;40.43;;;19.27;;
39020;SDS011;25188;51.958;5.842;2022-11-15T00:05:08;37.23;;;18.37;;
39020;SDS011;25188;51.958;5.842;2022-11-15T00:07:34;33.37;;;17.53;;
39020;SDS011;25188;51.958;5.842;2022-11-15T00:09:59;33.20;;;17.13;;
39020;SDS011;25188;51.958;5.842;2022-11-15T00:12:26;38.37;;;18.80;;
39020;SDS011;25188;51.958;5.842;2022-11-15T00:14:52;35.07;;;17.43;;
39020;SDS011;25188;51.958;5.842;2022-11-15T00:17:18;30.50;;;16.73;;
39020;SDS011;25188;51.958;5.842;2022-11-15T00:19:44;33.13;;;17.13;;
39020;SDS011;25188;51.958;5.842;2022-11-15T00:22:10;37.37;;;17.13;;
39020;SDS011;25188;51.958;5.842;2022-11-15T00:24:35;34.73;;;18.83;;
39020;SDS011;25188;51.958;5.842;2022-11-15T00:27:01;33.77;;;17.83;;
39020;SDS011;25188;51.958;5.842;2022-11-15T00:29:26;34.73;;;17.03;;
39020;SDS011;25188;51.958;5.842;2022-11-15T00:31:52;32.37;;;16.73;;
39020;SDS011;25188;51.958;5.842;2022-11-15T00:34:18;31.57;;;17.97;;
39020;SDS011;25188;51.958;5.842;2022-11-15T00:36:43;45.50;;;18.70;;
39020;SDS011;25188;51.958;5.842;2022-11-15T00:39:09;34.50;;;17.27;;
39020;SDS011;25188;51.958;5.842;2022-11-15T00:41:35;31.53;;;16.70;;
39020;SDS011;25188;51.958;5.842;2022-11-15T00:44:00;35.77;;;16.50;;
39020;SDS011;25188;51.958;5.842;2022-11-15T00:46:26;35.70;;;17.47;;
39020;SDS011;25188;51.958;5.842;2022-11-15T00:48:51;34.60;;;17.67;;
39020;SDS011;25188;51.958;5.842;2022-11-15T00:51:17;34.97;;;18.17;;
39020;SDS011;25188;51.958;5.842;2022-11-15T00:53:43;35.70;;;16.80;;
39020;SDS011;25188;51.958;5.842;2022-11-15T00:56:08;26.17;;;15.37;;
39020;SDS011;25188;51.958;5.842;2022-11-15T00:58:34;31.13;;;17.53;;
39020;SDS011;25188;51.958;5.842;2022-11-15T01:01:06;27.97;;;16.53;;
39020;SDS011;25188;51.958;5.842;2022-11-15T01:03:37;32.80;;;17.77;;
39020;SDS011;25188;51.958;5.842;2022-11-15T01:06:04;29.27;;;16.60;;
39020;SDS011;25188;51.958;5.842;2022-11-15T01:08:30;31.20;;;16.37;;
39020;SDS011;25188;51.958;5.842;2022-11-15T01:10:59;29.80;;;16.83;;
39020;SDS011;25188;51.958;5.842;2022-11-15T01:13:28;27.23;;;16.13;;
39020;SDS011;25188;51.958;5.842;2022-11-15T01:15:56;24.70;;;14.77;;
39020;SDS011;25188;51.958;5.842;2022-11-15T01:18:21;28.63;;;16.33;;
39020;SDS011;25188;51.958;5.842;2022-11-15T01:20:47;28.37;;;15.73;;
39020;SDS011;25188;51.958;5.842;2022-11-15T01:23:12;27.23;;;16.80;;
39020;SDS011;25188;51.958;5.842;2022-11-15T01:25:39;29.90;;;16.77;;
39020;SDS011;25188;51.958;5.842;2022-11-15T01:28:04;28.57;;;16.37;;
39020;SDS011;25188;51.958;5.842;2022-11-15T01:30:30;27.13;;;14.87;;
39020;SDS011;25188;51.958;5.842;2022-11-15T01:32:56;30.83;;;16.37;;
39020;SDS011;25188;51.958;5.842;2022-11-15T01:35:21;27.37;;;16.10;;
39020;SDS011;25188;51.958;5.842;2022-11-15T01:37:47;35.47;;;16.60;;
39020;SDS011;25188;51.958;5.842;2022-11-15T01:40:12;26.03;;;16.20;;
39020;SDS011;25188;51.958;5.842;2022-11-15T01:42:39;25.07;;;16.17;;
39020;SDS011;25188;51.958;5.842;2022-11-15T01:45:05;32.73;;;17.40;;
39020;SDS011;25188;51.958;5.842;2022-11-15T01:47:32;27.30;;;15.80;;
39020;SDS011;25188;51.958;5.842;2022-11-15T01:50:04;32.97;;;16.03;;
39020;SDS011;25188;51.958;5.842;2022-11-15T01:52:33;28.27;;;16.67;;
39020;SDS011;25188;51.958;5.842;2022-11-15T01:57:35;27.43;;;16.23;;
39020;SDS011;25188;51.958;5.842;2022-11-15T02:00:01;29.13;;;16.17;;
39020;SDS011;25188;51.958;5.842;2022-11-15T02:02:28;27.50;;;15.13;;
39020;SDS011;25188;51.958;5.842;2022-11-15T02:04:54;27.27;;;16.03;;
39020;SDS011;25188;51.958;5.842;2022-11-15T02:07:20;26.70;;;15.87;;
39020;SDS011;25188;51.958;5.842;2022-11-15T02:09:47;23.83;;;14.83;;
39020;SDS011;25188;51.958;5.842;2022-11-15T02:12:15;24.60;;;14.43;;
39020;SDS011;25188;51.958;5.842;2022-11-15T02:14:44;25.73;;;15.80;;
39020;SDS011;25188;51.958;5.842;2022-11-15T02:20:08;25.87;;;15.67;;
39020;SDS011;25188;51.958;5.842;2022-11-15T02:22:51;20.90;;;13.93;;
39020;SDS011;25188;51.958;5.842;2022-11-15T02:41:58;19.63;;;13.43;;
39020;SDS011;25188;51.958;5.842;2022-11-15T02:44:39;21.17;;;13.63;;
39020;SDS011;25188;51.958;5.842;2022-11-15T02:47:11;20.17;;;13.17;;
39020;SDS011;25188;51.958;5.842;2022-11-15T02:49:41;22.20;;;13.57;;
39020;SDS011;25188;51.958;5.842;2022-11-15T02:52:30;26.10;;;14.13;;
39020;SDS011;25188;51.958;5.842;2022-11-15T02:54:56;23.73;;;14.33;;
39020;SDS011;25188;51.958;5.842;2022-11-15T03:00:32;21.20;;;13.53;;
39020;SDS011;25188;51.958;5.842;2022-11-15T03:06:55;21.10;;;13.80;;
39020;SDS011;25188;51.958;5.842;2022-11-15T03:09:33;20.27;;;13.43;;
39020;SDS011;25188;51.958;5.842;2022-11-15T03:12:04;21.90;;;13.63;;
39020;SDS011;25188;51.958;5.842;2022-11-15T03:14:56;21.13;;;14.40;;
39020;SDS011;25188;51.958;5.842;2022-11-15T03:17:30;18.83;;;13.53;;
39020;SDS011;25188;51.958;5.842;2022-11-15T03:20:02;19.70;;;13.93;;
39020;SDS011;25188;51.958;5.842;2022-11-15T03:22:32;19.40;;;13.90;;
39020;SDS011;25188;51.958;5.842;2022-11-15T03:25:02;22.80;;;14.40;;
39020;SDS011;25188;51.958;5.842;2022-11-15T03:27:33;23.23;;;14.63;;
39020;SDS011;25188;51.958;5.842;2022-11-15T03:30:04;26.27;;;14.90;;
39020;SDS011;25188;51.958;5.842;2022-11-15T03:32:34;22.63;;;14.60;;
39020;SDS011;25188;51.958;5.842;2022-11-15T03:37:59;22.00;;;14.90;;
39020;SDS011;25188;51.958;5.842;2022-11-15T03:40:35;24.60;;;14.90;;
39020;SDS011;25188;51.958;5.842;2022-11-15T03:43:11;22.13;;;14.07;;
39020;SDS011;25188;51.958;5.842;2022-11-15T03:46:36;19.70;;;14.13;;
39020;SDS011;25188;51.958;5.842;2022-11-15T03:48:58;22.90;;;13.87;;
39020;SDS011;25188;51.958;5.842;2022-11-15T03:51:36;22.63;;;15.77;;
39020;SDS011;25188;51.958;5.842;2022-11-15T03:54:03;25.10;;;15.50;;
39020;SDS011;25188;51.958;5.842;2022-11-15T03:56:29;22.63;;;15.33;;
39020;SDS011;25188;51.958;5.842;2022-11-15T03:58:55;26.17;;;16.67;;
39020;SDS011;25188;51.958;5.842;2022-11-15T04:01:20;24.93;;;16.13;;
39020;SDS011;25188;51.958;5.842;2022-11-15T04:03:46;25.13;;;15.70;;
39020;SDS011;25188;51.958;5.842;2022-11-15T04:06:11;28.60;;;16.63;;
39020;SDS011;25188;51.958;5.842;2022-11-15T04:08:37;23.73;;;15.57;;
39020;SDS011;25188;51.958;5.842;2022-11-15T04:11:03;28.87;;;17.73;;
39020;SDS011;25188;51.958;5.842;2022-11-15T04:13:28;24.60;;;15.27;;
39020;SDS011;25188;51.958;5.842;2022-11-15T04:15:54;24.13;;;15.70;;
39020;SDS011;25188;51.958;5.842;2022-11-15T04:18:19;21.57;;;14.97;;
39020;SDS011;25188;51.958;5.842;2022-11-15T04:20:45;29.33;;;17.57;;
39020;SDS011;25188;51.958;5.842;2022-11-15T04:23:29;24.75;;;16.67;;
39020;SDS011;25188;51.958;5.842;2022-11-15T04:26:20;29.20;;;16.60;;
39020;SDS011;25188;51.958;5.842;2022-11-15T04:28:47;25.85;;;16.52;;
39020;SDS011;25188;51.958;5.842;2022-11-15T04:31:32;24.10;;;16.10;;
39020;SDS011;25188;51.958;5.842;2022-11-15T04:33:57;25.27;;;17.10;;
39020;SDS011;25188;51.958;5.842;2022-11-15T04:36:24;25.00;;;16.40;;
39020;SDS011;25188;51.958;5.842;2022-11-15T04:39:08;26.08;;;15.85;;
39020;SDS011;25188;51.958;5.842;2022-11-15T04:41:33;22.07;;;15.17;;
39020;SDS011;25188;51.958;5.842;2022-11-15T04:43:59;22.13;;;16.00;;
39020;SDS011;25188;51.958;5.842;2022-11-15T04:46:25;26.63;;;14.53;;
39020;SDS011;25188;51.958;5.842;2022-11-15T04:48:51;22.53;;;16.03;;
39020;SDS011;25188;51.958;5.842;2022-11-15T04:51:17;26.05;;;17.10;;
39020;SDS011;25188;51.958;5.842;2022-11-15T04:53:43;28.07;;;17.37;;
39020;SDS011;25188;51.958;5.842;2022-11-15T04:56:09;25.45;;;18.35;;
39020;SDS011;25188;51.958;5.842;2022-11-15T04:58:35;24.13;;;17.57;;
39020;SDS011;25188;51.958;5.842;2022-11-15T05:01:10;28.25;;;19.17;;
39020;SDS011;25188;51.958;5.842;2022-11-15T05:03:37;26.70;;;17.50;;
39020;SDS011;25188;51.958;5.842;2022-11-15T05:06:21;27.08;;;17.73;;
39020;SDS011;25188;51.958;5.842;2022-11-15T05:08:47;27.30;;;17.83;;
39020;SDS011;25188;51.958;5.842;2022-11-15T05:11:12;27.48;;;18.55;;
39020;SDS011;25188;51.958;5.842;2022-11-15T05:13:38;28.02;;;16.92;;
39020;SDS011;25188;51.958;5.842;2022-11-15T05:16:04;27.80;;;17.52;;
39020;SDS011;25188;51.958;5.842;2022-11-15T05:18:29;29.70;;;17.53;;
39020;SDS011;25188;51.958;5.842;2022-11-15T05:20:55;27.67;;;18.63;;
39020;SDS011;25188;51.958;5.842;2022-11-15T05:23:21;31.73;;;18.50;;
39020;SDS011;25188;51.958;5.842;2022-11-15T05:25:46;28.90;;;17.25;;
39020;SDS011;25188;51.958;5.842;2022-11-15T05:28:12;25.27;;;16.75;;
39020;SDS011;25188;51.958;5.842;2022-11-15T05:30:38;32.10;;;20.03;;
39020;SDS011;25188;51.958;5.842;2022-11-15T05:33:03;29.00;;;17.77;;
39020;SDS011;25188;51.958;5.842;2022-11-15T05:35:30;28.58;;;17.58;;
39020;SDS011;25188;51.958;5.842;2022-11-15T05:38:00;28.30;;;17.38;;
39020;SDS011;25188;51.958;5.842;2022-11-15T05:40:26;27.48;;;17.33;;
39020;SDS011;25188;51.958;5.842;2022-11-15T05:42:53;30.65;;;18.50;;
39020;SDS011;25188;51.958;5.842;2022-11-15T05:45:19;25.30;;;17.30;;
39020;SDS011;25188;51.958;5.842;2022-11-15T05:47:45;29.70;;;18.70;;
39020;SDS011;25188;51.958;5.842;2022-11-15T05:50:12;28.05;;;18.40;;
39020;SDS011;25188;51.958;5.842;2022-11-15T05:52:40;28.10;;;17.80;;
39020;SDS011;25188;51.958;5.842;2022-11-15T05:55:06;28.20;;;17.95;;
39020;SDS011;25188;51.958;5.842;2022-11-15T05:57:33;27.45;;;17.13;;
39020;SDS011;25188;51.958;5.842;2022-11-15T05:59:59;28.30;;;19.08;;
39020;SDS011;25188;51.958;5.842;2022-11-15T06:02:25;26.48;;;16.75;;
39020;SDS011;25188;51.958;5.842;2022-11-15T06:04:50;29.15;;;18.77;;
39020;SDS011;25188;51.958;5.842;2022-11-15T06:07:16;25.40;;;17.23;;
39020;SDS011;25188;51.958;5.842;2022-11-15T06:09:41;27.90;;;17.45;;
39020;SDS011;25188;51.958;5.842;2022-11-15T06:12:07;28.65;;;18.45;;
39020;SDS011;25188;51.958;5.842;2022-11-15T06:14:33;29.15;;;17.70;;
39020;SDS011;25188;51.958;5.842;2022-11-15T06:16:58;25.08;;;16.27;;
39020;SDS011;25188;51.958;5.842;2022-11-15T06:19:24;31.88;;;18.60;;
39020;SDS011;25188;51.958;5.842;2022-11-15T06:21:58;23.73;;;16.77;;
39020;SDS011;25188;51.958;5.842;2022-11-15T06:24:26;25.05;;;17.05;;
39020;SDS011;25188;51.958;5.842;2022-11-15T06:26:52;26.73;;;16.33;;
39020;SDS011;25188;51.958;5.842;2022-11-15T06:29:18;25.65;;;16.02;;
39020;SDS011;25188;51.958;5.842;2022-11-15T06:31:44;26.42;;;16.17;;
39020;SDS011;25188;51.958;5.842;2022-11-15T06:34:10;21.33;;;15.48;;
39020;SDS011;25188;51.958;5.842;2022-11-15T06:36:35;25.95;;;15.95;;
39020;SDS011;25188;51.958;5.842;2022-11-15T06:39:02;22.52;;;14.82;;
39020;SDS011;25188;51.958;5.842;2022-11-15T06:41:29;22.88;;;14.27;;
39020;SDS011;25188;51.958;5.842;2022-11-15T06:43:54;20.77;;;14.70;;
39020;SDS011;25188;51.958;5.842;2022-11-15T06:46:21;20.25;;;13.77;;
39020;SDS011;25188;51.958;5.842;2022-11-15T06:48:46;22.05;;;14.30;;
39020;SDS011;25188;51.958;5.842;2022-11-15T06:51:14;21.83;;;13.95;;
39020;SDS011;25188;51.958;5.842;2022-11-15T06:53:39;22.58;;;14.70;;
39020;SDS011;25188;51.958;5.842;2022-11-15T06:56:05;23.40;;;14.82;;
39020;SDS011;25188;51.958;5.842;2022-11-15T06:58:32;21.17;;;14.25;;
39020;SDS011;25188;51.958;5.842;2022-11-15T07:00:59;23.35;;;13.52;;
39020;SDS011;25188;51.958;5.842;2022-11-15T07:03:26;23.00;;;13.45;;
39020;SDS011;25188;51.958;5.842;2022-11-15T07:05:55;21.48;;;13.88;;
39020;SDS011;25188;51.958;5.842;2022-11-15T07:08:22;22.45;;;13.57;;
39020;SDS011;25188;51.958;5.842;2022-11-15T07:10:49;23.98;;;13.63;;
39020;SDS011;25188;51.958;5.842;2022-11-15T07:13:15;21.13;;;13.25;;
39020;SDS011;25188;51.958;5.842;2022-11-15T07:15:40;23.33;;;15.40;;
39020;SDS011;25188;51.958;5.842;2022-11-15T07:18:06;18.63;;;13.98;;
39020;SDS011;25188;51.958;5.842;2022-11-15T07:20:32;20.13;;;13.30;;
39020;SDS011;25188;51.958;5.842;2022-11-15T07:23:01;17.45;;;12.57;;
39020;SDS011;25188;51.958;5.842;2022-11-15T07:25:28;19.67;;;13.10;;
39020;SDS011;25188;51.958;5.842;2022-11-15T07:27:54;22.95;;;15.00;;
39020;SDS011;25188;51.958;5.842;2022-11-15T07:30:21;22.25;;;14.52;;
39020;SDS011;25188;51.958;5.842;2022-11-15T07:32:46;23.88;;;14.00;;
39020;SDS011;25188;51.958;5.842;2022-11-15T07:35:12;19.00;;;13.38;;
39020;SDS011;25188;51.958;5.842;2022-11-15T07:37:38;18.65;;;12.82;;
39020;SDS011;25188;51.958;5.842;2022-11-15T07:40:03;19.52;;;13.68;;
39020;SDS011;25188;51.958;5.842;2022-11-15T07:42:32;21.35;;;12.98;;
39020;SDS011;25188;51.958;5.842;2022-11-15T07:45:16;20.67;;;14.13;;
39020;SDS011;25188;51.958;5.842;2022-11-15T07:47:45;22.02;;;14.48;;
39020;SDS011;25188;51.958;5.842;2022-11-15T07:50:11;22.52;;;14.35;;
39020;SDS011;25188;51.958;5.842;2022-11-15T07:52:37;19.95;;;12.98;;
39020;SDS011;25188;51.958;5.842;2022-11-15T07:55:02;20.27;;;13.13;;
39020;SDS011;25188;51.958;5.842;2022-11-15T07:57:29;18.42;;;12.18;;
39020;SDS011;25188;51.958;5.842;2022-11-15T07:59:55;22.92;;;13.85;;
39020;SDS011;25188;51.958;5.842;2022-11-15T08:02:20;16.88;;;12.75;;
39020;SDS011;25188;51.958;5.842;2022-11-15T08:04:46;17.48;;;11.98;;
39020;SDS011;25188;51.958;5.842;2022-11-15T08:07:12;19.65;;;13.38;;
39020;SDS011;25188;51.958;5.842;2022-11-15T08:09:37;19.42;;;12.23;;
39020;SDS011;25188;51.958;5.842;2022-11-15T08:12:03;18.80;;;12.07;;
39020;SDS011;25188;51.958;5.842;2022-11-15T08:14:29;19.92;;;12.80;;
39020;SDS011;25188;51.958;5.842;2022-11-15T08:16:54;18.42;;;12.65;;
39020;SDS011;25188;51.958;5.842;2022-11-15T08:19:20;16.77;;;11.70;;
39020;SDS011;25188;51.958;5.842;2022-11-15T08:21:46;19.17;;;11.85;;
39020;SDS011;25188;51.958;5.842;2022-11-15T08:24:11;19.92;;;11.85;;
39020;SDS011;25188;51.958;5.842;2022-11-15T08:26:37;18.73;;;11.70;;
39020;SDS011;25188;51.958;5.842;2022-11-15T08:29:03;18.15;;;11.10;;
39020;SDS011;25188;51.958;5.842;2022-11-15T08:31:28;15.98;;;10.70;;
39020;SDS011;25188;51.958;5.842;2022-11-15T08:33:54;15.13;;;11.02;;
39020;SDS011;25188;51.958;5.842;2022-11-15T08:36:20;19.63;;;11.77;;
39020;SDS011;25188;51.958;5.842;2022-11-15T08:38:45;21.42;;;11.45;;
39020;SDS011;25188;51.958;5.842;2022-11-15T08:41:13;17.52;;;11.38;;
39020;SDS011;25188;51.958;5.842;2022-11-15T08:43:44;14.98;;;10.93;;
39020;SDS011;25188;51.958;5.842;2022-11-15T08:46:12;18.90;;;11.70;;
39020;SDS011;25188;51.958;5.842;2022-11-15T08:48:38;17.58;;;10.70;;
39020;SDS011;25188;51.958;5.842;2022-11-15T08:51:04;15.50;;;10.65;;
39020;SDS011;25188;51.958;5.842;2022-11-15T08:53:30;16.48;;;9.68;;
39020;SDS011;25188;51.958;5.842;2022-11-15T08:55:56;17.52;;;10.50;;
39020;SDS011;25188;51.958;5.842;2022-11-15T08:58:22;16.17;;;10.15;;
39020;SDS011;25188;51.958;5.842;2022-11-15T09:00:47;16.58;;;9.65;;
39020;SDS011;25188;51.958;5.842;2022-11-15T09:03:13;17.52;;;10.73;;
39020;SDS011;25188;51.958;5.842;2022-11-15T09:05:39;15.60;;;11.70;;
39020;SDS011;25188;51.958;5.842;2022-11-15T09:08:05;14.93;;;10.00;;
39020;SDS011;25188;51.958;5.842;2022-11-15T09:10:30;14.10;;;9.40;;
39020;SDS011;25188;51.958;5.842;2022-11-15T09:12:56;15.32;;;9.65;;
39020;SDS011;25188;51.958;5.842;2022-11-15T09:15:22;18.92;;;11.27;;
39020;SDS011;25188;51.958;5.842;2022-11-15T09:17:48;15.55;;;9.48;;
39020;SDS011;25188;51.958;5.842;2022-11-15T09:20:14;17.65;;;10.07;;
39020;SDS011;25188;51.958;5.842;2022-11-15T09:22:39;16.20;;;8.75;;
39020;SDS011;25188;51.958;5.842;2022-11-15T09:25:05;15.35;;;9.38;;
39020;SDS011;25188;51.958;5.842;2022-11-15T09:27:31;15.25;;;8.13;;
39020;SDS011;25188;51.958;5.842;2022-11-15T09:29:57;14.95;;;7.95;;
39020;SDS011;25188;51.958;5.842;2022-11-15T09:32:23;16.70;;;7.88;;
39020;SDS011;25188;51.958;5.842;2022-11-15T09:34:52;13.60;;;8.00;;
39020;SDS011;25188;51.958;5.842;2022-11-15T09:37:18;11.93;;;6.75;;
39020;SDS011;25188;51.958;5.842;2022-11-15T09:39:43;11.73;;;6.75;;
39020;SDS011;25188;51.958;5.842;2022-11-15T09:47:36;9.95;;;4.82;;
39020;SDS011;25188;51.958;5.842;2022-11-15T09:50:26;10.15;;;5.32;;
39020;SDS011;25188;51.958;5.842;2022-11-15T09:53:12;10.60;;;4.45;;
39020;SDS011;25188;51.958;5.842;2022-11-15T09:55:59;8.05;;;4.32;;
39020;SDS011;25188;51.958;5.842;2022-11-15T09:58:36;6.03;;;4.07;;
39020;SDS011;25188;51.958;5.842;2022-11-15T10:01:17;9.30;;;5.18;;
39020;SDS011;25188;51.958;5.842;2022-11-15T10:03:54;9.95;;;4.80;;
39020;SDS011;25188;51.958;5.842;2022-11-15T10:06:23;8.77;;;4.35;;
39020;SDS011;25188;51.958;5.842;2022-11-15T10:11:20;10.25;;;4.15;;
39020;SDS011;25188;51.958;5.842;2022-11-15T10:13:51;5.28;;;3.20;;
39020;SDS011;25188;51.958;5.842;2022-11-15T10:22:26;6.88;;;2.97;;
39020;SDS011;25188;51.958;5.842;2022-11-15T10:27:33;9.35;;;3.47;;
39020;SDS011;25188;51.958;5.842;2022-11-15T10:30:00;6.60;;;3.17;;
39020;SDS011;25188;51.958;5.842;2022-11-15T10:32:28;5.00;;;2.60;;
39020;SDS011;25188;51.958;5.842;2022-11-15T10:34:59;6.47;;;2.05;;
39020;SDS011;25188;51.958;5.842;2022-11-15T10:37:40;5.47;;;2.20;;
39020;SDS011;25188;51.958;5.842;2022-11-15T10:40:14;3.85;;;1.50;;
39020;SDS011;25188;51.958;5.842;2022-11-15T10:42:45;4.35;;;1.40;;
39020;SDS011;25188;51.958;5.842;2022-11-15T10:45:28;2.75;;;1.00;;
39020;SDS011;25188;51.958;5.842;2022-11-15T10:50:45;3.28;;;1.20;;
39020;SDS011;25188;51.958;5.842;2022-11-15T10:56:00;3.10;;;1.02;;
39020;SDS011;25188;51.958;5.842;2022-11-15T11:00:54;3.47;;;0.80;;
39020;SDS011;25188;51.958;5.842;2022-11-15T11:11:25;2.17;;;0.80;;
39020;SDS011;25188;51.958;5.842;2022-11-15T11:14:22;3.22;;;0.90;;
39020;SDS011;25188;51.958;5.842;2022-11-15T11:17:57;2.40;;;0.70;;
39020;SDS011;25188;51.958;5.842;2022-11-15T11:28:47;6.80;;;0.98;;
39020;SDS011;25188;51.958;5.842;2022-11-15T11:31:28;2.47;;;0.60;;
39020;SDS011;25188;51.958;5.842;2022-11-15T11:45:47;3.53;;;0.80;;
39020;SDS011;25188;51.958;5.842;2022-11-15T11:51:14;5.28;;;0.65;;
39020;SDS011;25188;51.958;5.842;2022-11-15T11:54:00;4.25;;;0.40;;
39020;SDS011;25188;51.958;5.842;2022-11-15T11:56:44;4.50;;;0.70;;
39020;SDS011;25188;51.958;5.842;2022-11-15T12:02:27;2.90;;;0.70;;
39020;SDS011;25188;51.958;5.842;2022-11-15T12:05:10;4.57;;;0.60;;
39020;SDS011;25188;51.958;5.842;2022-11-15T12:07:40;3.42;;;0.55;;
39020;SDS011;25188;51.958;5.842;2022-11-15T12:10:22;2.78;;;0.60;;
39020;SDS011;25188;51.958;5.842;2022-11-15T12:12:52;2.20;;;0.70;;
39020;SDS011;25188;51.958;5.842;2022-11-15T12:16:18;3.30;;;0.60;;
39020;SDS011;25188;51.958;5.842;2022-11-15T12:18:28;3.67;;;0.75;;
39020;SDS011;25188;51.958;5.842;2022-11-15T12:20:58;2.53;;;0.40;;
39020;SDS011;25188;51.958;5.842;2022-11-15T12:23:29;2.22;;;0.40;;
39020;SDS011;25188;51.958;5.842;2022-11-15T12:26:07;3.72;;;0.55;;
39020;SDS011;25188;51.958;5.842;2022-11-15T12:31:17;2.92;;;0.65;;
39020;SDS011;25188;51.958;5.842;2022-11-15T12:36:47;3.83;;;0.50;;
39020;SDS011;25188;51.958;5.842;2022-11-15T12:39:15;2.20;;;0.40;;
39020;SDS011;25188;51.958;5.842;2022-11-15T12:41:42;2.85;;;0.50;;
39020;SDS011;25188;51.958;5.842;2022-11-15T12:49:52;2.58;;;0.40;;
39020;SDS011;25188;51.958;5.842;2022-11-15T12:52:18;1.85;;;0.52;;
39020;SDS011;25188;51.958;5.842;2022-11-15T12:54:52;1.40;;;0.47;;
39020;SDS011;25188;51.958;5.842;2022-11-15T12:59:58;3.42;;;0.43;;
39020;SDS011;25188;51.958;5.842;2022-11-15T13:03:12;6.28;;;0.50;;
39020;SDS011;25188;51.958;5.842;2022-11-15T13:08:09;2.75;;;0.45;;
39020;SDS011;25188;51.958;5.842;2022-11-15T13:10:54;3.80;;;0.43;;
39020;SDS011;25188;51.958;5.842;2022-11-15T13:13:41;2.20;;;0.52;;
39020;SDS011;25188;51.958;5.842;2022-11-15T13:16:07;3.50;;;0.43;;
39020;SDS011;25188;51.958;5.842;2022-11-15T13:18:39;2.83;;;0.50;;
39020;SDS011;25188;51.958;5.842;2022-11-15T13:21:18;2.25;;;0.30;;
39020;SDS011;25188;51.958;5.842;2022-11-15T13:24:13;1.27;;;0.40;;
39020;SDS011;25188;51.958;5.842;2022-11-15T13:26:41;1.92;;;0.45;;
39020;SDS011;25188;51.958;5.842;2022-11-15T13:29:16;1.80;;;0.50;;
39020;SDS011;25188;51.958;5.842;2022-11-15T13:31:44;3.20;;;0.52;;
39020;SDS011;25188;51.958;5.842;2022-11-15T13:34:32;1.88;;;0.40;;
39020;SDS011;25188;51.958;5.842;2022-11-15T13:37:01;2.58;;;0.38;;
39020;SDS011;25188;51.958;5.842;2022-11-15T13:39:31;3.47;;;0.68;;
39020;SDS011;25188;51.958;5.842;2022-11-15T13:41:59;3.03;;;0.60;;
39020;SDS011;25188;51.958;5.842;2022-11-15T13:44:27;1.98;;;0.40;;
39020;SDS011;25188;51.958;5.842;2022-11-15T13:47:01;4.85;;;0.40;;
39020;SDS011;25188;51.958;5.842;2022-11-15T13:49:32;3.88;;;0.57;;
39020;SDS011;25188;51.958;5.842;2022-11-15T13:51:59;3.90;;;0.60;;
39020;SDS011;25188;51.958;5.842;2022-11-15T13:54:29;2.85;;;0.40;;
39020;SDS011;25188;51.958;5.842;2022-11-15T13:57:03;2.10;;;0.50;;
39020;SDS011;25188;51.958;5.842;2022-11-15T13:59:49;3.67;;;0.55;;
39020;SDS011;25188;51.958;5.842;2022-11-15T14:02:35;3.67;;;0.40;;
39020;SDS011;25188;51.958;5.842;2022-11-15T14:05:15;2.00;;;0.40;;
39020;SDS011;25188;51.958;5.842;2022-11-15T14:07:56;2.95;;;0.50;;
39020;SDS011;25188;51.958;5.842;2022-11-15T14:10:33;2.40;;;0.40;;
39020;SDS011;25188;51.958;5.842;2022-11-15T14:13:01;1.83;;;0.30;;
39020;SDS011;25188;51.958;5.842;2022-11-15T14:15:32;7.32;;;0.40;;
39020;SDS011;25188;51.958;5.842;2022-11-15T14:17:59;1.23;;;0.40;;
39020;SDS011;25188;51.958;5.842;2022-11-15T14:22:56;3.15;;;0.32;;
39020;SDS011;25188;51.958;5.842;2022-11-15T14:25:51;2.78;;;0.52;;
39020;SDS011;25188;51.958;5.842;2022-11-15T14:30:49;2.88;;;0.60;;
39020;SDS011;25188;51.958;5.842;2022-11-15T14:35:51;4.10;;;0.65;;
39020;SDS011;25188;51.958;5.842;2022-11-15T14:38:17;1.63;;;0.40;;
39020;SDS011;25188;51.958;5.842;2022-11-15T14:40:43;3.90;;;0.45;;
39020;SDS011;25188;51.958;5.842;2022-11-15T14:43:10;2.05;;;0.52;;
39020;SDS011;25188;51.958;5.842;2022-11-15T14:45:36;2.50;;;0.40;;
39020;SDS011;25188;51.958;5.842;2022-11-15T14:48:03;1.75;;;0.40;;
39020;SDS011;25188;51.958;5.842;2022-11-15T14:50:29;3.83;;;0.80;;
39020;SDS011;25188;51.958;5.842;2022-11-15T14:52:54;2.10;;;0.60;;
39020;SDS011;25188;51.958;5.842;2022-11-15T14:55:24;3.17;;;0.50;;
39020;SDS011;25188;51.958;5.842;2022-11-15T14:57:53;2.78;;;0.60;;
39020;SDS011;25188;51.958;5.842;2022-11-15T15:00:19;2.35;;;0.60;;
39020;SDS011;25188;51.958;5.842;2022-11-15T15:02:46;6.03;;;0.70;;
39020;SDS011;25188;51.958;5.842;2022-11-15T15:05:14;4.90;;;0.70;;
39020;SDS011;25188;51.958;5.842;2022-11-15T15:07:45;2.72;;;0.60;;
39020;SDS011;25188;51.958;5.842;2022-11-15T15:10:12;3.63;;;0.75;;
39020;SDS011;25188;51.958;5.842;2022-11-15T15:12:38;2.67;;;0.60;;
39020;SDS011;25188;51.958;5.842;2022-11-15T15:15:04;5.30;;;0.90;;
39020;SDS011;25188;51.958;5.842;2022-11-15T15:17:31;1.65;;;0.60;;
39020;SDS011;25188;51.958;5.842;2022-11-15T15:19:56;3.13;;;0.57;;
39020;SDS011;25188;51.958;5.842;2022-11-15T15:22:22;3.65;;;0.88;;
39020;SDS011;25188;51.958;5.842;2022-11-15T15:24:51;2.75;;;0.63;;
39020;SDS011;25188;51.958;5.842;2022-11-15T15:27:16;3.95;;;0.60;;
39020;SDS011;25188;51.958;5.842;2022-11-15T15:29:42;8.25;;;0.88;;
39020;SDS011;25188;51.958;5.842;2022-11-15T15:32:08;4.15;;;0.80;;
39020;SDS011;25188;51.958;5.842;2022-11-15T15:34:35;2.72;;;0.75;;
39020;SDS011;25188;51.958;5.842;2022-11-15T15:37:21;3.20;;;0.68;;
39020;SDS011;25188;51.958;5.842;2022-11-15T15:39:49;4.78;;;0.80;;
39020;SDS011;25188;51.958;5.842;2022-11-15T15:42:18;5.18;;;0.70;;
39020;SDS011;25188;51.958;5.842;2022-11-15T15:44:44;6.53;;;0.88;;
39020;SDS011;25188;51.958;5.842;2022-11-15T15:47:11;5.05;;;0.82;;
39020;SDS011;25188;51.958;5.842;2022-11-15T15:49:47;2.17;;;0.98;;
39020;SDS011;25188;51.958;5.842;2022-11-15T15:52:16;4.63;;;0.90;;
39020;SDS011;25188;51.958;5.842;2022-11-15T15:54:42;4.68;;;0.80;;
39020;SDS011;25188;51.958;5.842;2022-11-15T15:57:08;5.05;;;0.88;;
39020;SDS011;25188;51.958;5.842;2022-11-15T15:59:37;2.15;;;0.60;;
39020;SDS011;25188;51.958;5.842;2022-11-15T16:02:03;5.53;;;0.85;;
39020;SDS011;25188;51.958;5.842;2022-11-15T16:04:29;3.17;;;0.73;;
39020;SDS011;25188;51.958;5.842;2022-11-15T16:07:01;3.67;;;0.65;;
39020;SDS011;25188;51.958;5.842;2022-11-15T16:09:27;3.65;;;0.60;;
39020;SDS011;25188;51.958;5.842;2022-11-15T16:12:11;6.30;;;0.77;;
39020;SDS011;25188;51.958;5.842;2022-11-15T16:14:37;3.60;;;0.73;;
39020;SDS011;25188;51.958;5.842;2022-11-15T16:17:03;4.60;;;0.90;;
39020;SDS011;25188;51.958;5.842;2022-11-15T16:19:28;4.90;;;0.70;;
39020;SDS011;25188;51.958;5.842;2022-11-15T16:21:54;6.60;;;1.08;;
39020;SDS011;25188;51.958;5.842;2022-11-15T16:24:20;7.35;;;1.15;;
39020;SDS011;25188;51.958;5.842;2022-11-15T16:26:46;4.15;;;0.90;;
39020;SDS011;25188;51.958;5.842;2022-11-15T16:29:13;3.25;;;0.90;;
39020;SDS011;25188;51.958;5.842;2022-11-15T16:31:39;3.65;;;0.93;;
39020;SDS011;25188;51.958;5.842;2022-11-15T16:34:04;4.53;;;0.98;;
39020;SDS011;25188;51.958;5.842;2022-11-15T16:36:32;5.55;;;1.00;;
39020;SDS011;25188;51.958;5.842;2022-11-15T16:38:59;3.97;;;0.88;;